Time,TemperatureF,DewpointF,PressureIn,WindDirection,WindDirectionDegrees,WindSpeedMPH,WindSpeedGustMPH,Humidity,HourlyPrecipIn,Conditions,Clouds,dailyrainin,SoftwareType,DateUTC
2013-08-03 00:00:00,61.0,53.1,30.30,North,0,0.0,0.0,75,0.00,,,0.00,WUHU216HW,2013-08-03 05:00:00,
2013-08-03 00:05:00,61.0,53.1,30.30,North,0,0.0,0.0,75,0.00,,,0.00,WUHU216HW,2013-08-03 05:05:00,
2013-08-03 00:30:00,60.7,53.1,30.30,North,0,0.0,0.0,76,0.00,,,0.00,WUHU216HW,2013-08-03 05:30:00,
2013-08-03 00:35:00,60.7,53.1,30.30,North,0,0.0,0.0,76,0.00,,,0.00,WUHU216HW,2013-08-03 05:35:00,
2013-08-03 00:59:00,59.4,52.6,30.32,North,0,0.0,0.0,78,0.00,,,0.00,WUHU216HW,2013-08-03 05:59:00,
2013-08-03 01:00:00,59.4,52.6,30.32,North,0,0.0,0.0,78,0.00,,,0.00,WUHU216HW,2013-08-03 06:00:00,
2013-08-03 01:05:00,59.4,52.6,30.32,North,0,0.0,0.0,78,0.00,,,0.00,WUHU216HW,2013-08-03 06:05:00,
2013-08-03 01:29:00,58.5,52.0,30.31,North,0,0.0,0.0,79,0.00,,,0.00,WUHU216HW,2013-08-03 06:29:00,
2013-08-03 01:30:00,58.5,52.0,30.31,North,0,0.0,0.0,79,0.00,,,0.00,WUHU216HW,2013-08-03 06:30:00,
2013-08-03 01:35:00,58.5,52.0,30.31,North,0,0.0,0.0,79,0.00,,,0.00,WUHU216HW,2013-08-03 06:35:00,
2013-08-03 01:59:00,58.0,51.8,30.31,North,0,0.0,0.0,80,0.00,,,0.00,WUHU216HW,2013-08-03 06:59:00,
2013-08-03 02:00:00,58.0,51.8,30.31,North,0,0.0,0.0,80,0.00,,,0.00,WUHU216HW,2013-08-03 07:00:00,
2013-08-03 02:05:00,58.0,51.8,30.31,North,0,0.0,0.0,80,0.00,,,0.00,WUHU216HW,2013-08-03 07:05:00,
2013-08-03 02:29:00,57.2,51.5,30.31,North,0,0.0,0.0,81,0.00,,,0.00,WUHU216HW,2013-08-03 07:29:00,
2013-08-03 02:30:00,57.2,51.5,30.31,North,0,0.0,0.0,81,0.00,,,0.00,WUHU216HW,2013-08-03 07:30:00,
2013-08-03 02:35:00,57.2,51.5,30.31,North,0,0.0,0.0,81,0.00,,,0.00,WUHU216HW,2013-08-03 07:35:00,
2013-08-03 02:59:00,56.7,51.2,30.32,North,0,0.0,0.0,82,0.00,,,0.00,WUHU216HW,2013-08-03 07:59:00,
2013-08-03 03:00:00,56.7,51.2,30.32,North,0,0.0,0.0,82,0.00,,,0.00,WUHU216HW,2013-08-03 08:00:00,
2013-08-03 03:05:00,56.7,51.2,30.32,North,0,0.0,0.0,82,0.00,,,0.00,WUHU216HW,2013-08-03 08:05:00,
2013-08-03 03:29:00,56.0,50.2,30.33,North,0,0.0,0.0,81,0.00,,,0.00,WUHU216HW,2013-08-03 08:29:00,
2013-08-03 03:30:00,56.0,50.2,30.33,North,0,0.0,0.0,81,0.00,,,0.00,WUHU216HW,2013-08-03 08:30:00,
2013-08-03 03:35:00,56.0,50.2,30.33,North,0,0.0,0.0,81,0.00,,,0.00,WUHU216HW,2013-08-03 08:35:00,
2013-08-03 04:00:00,55.6,50.1,30.33,North,0,0.0,0.0,82,0.00,,,0.00,WUHU216HW,2013-08-03 09:00:00,
2013-08-03 04:05:00,55.6,50.1,30.33,North,0,0.0,0.0,82,0.00,,,0.00,WUHU216HW,2013-08-03 09:05:00,
2013-08-03 04:30:00,55.3,49.8,30.34,North,0,0.0,0.0,82,0.00,,,0.00,WUHU216HW,2013-08-03 09:30:00,
2013-08-03 04:35:00,55.3,49.8,30.34,North,0,0.0,0.0,82,0.00,,,0.00,WUHU216HW,2013-08-03 09:35:00,
2013-08-03 05:00:00,55.1,50.0,30.34,North,0,0.0,0.0,83,0.00,,,0.00,WUHU216HW,2013-08-03 10:00:00,
2013-08-03 05:05:00,55.1,50.0,30.34,North,0,0.0,0.0,83,0.00,,,0.00,WUHU216HW,2013-08-03 10:05:00,
2013-08-03 05:30:00,54.7,50.0,30.34,North,0,0.0,0.0,84,0.00,,,0.00,WUHU216HW,2013-08-03 10:30:00,
2013-08-03 05:35:00,54.7,50.0,30.34,North,0,0.0,0.0,84,0.00,,,0.00,WUHU216HW,2013-08-03 10:35:00,
2013-08-03 06:00:00,54.2,49.4,30.34,North,0,0.0,0.0,84,0.00,,,0.00,WUHU216HW,2013-08-03 11:00:00,
2013-08-03 06:05:00,54.2,49.4,30.34,North,0,0.0,0.0,84,0.00,,,0.00,WUHU216HW,2013-08-03 11:05:00,
2013-08-03 06:30:00,54.0,49.6,30.35,North,0,0.0,0.0,85,0.00,,,0.00,WUHU216HW,2013-08-03 11:30:00,
2013-08-03 06:35:00,54.0,49.6,30.35,North,0,0.0,0.0,85,0.00,,,0.00,WUHU216HW,2013-08-03 11:35:00,
2013-08-03 06:59:00,54.7,50.2,30.36,North,0,0.0,0.0,85,0.00,,,0.00,WUHU216HW,2013-08-03 11:59:00,
2013-08-03 07:00:00,54.7,50.2,30.36,North,0,0.0,0.0,85,0.00,,,0.00,WUHU216HW,2013-08-03 12:00:00,
2013-08-03 07:05:00,54.7,50.2,30.36,North,0,0.0,0.0,85,0.00,,,0.00,WUHU216HW,2013-08-03 12:05:00,
2013-08-03 07:29:00,56.9,53.0,30.37,North,0,0.0,0.0,87,0.00,,,0.00,WUHU216HW,2013-08-03 12:29:00,
2013-08-03 07:30:00,56.9,53.0,30.37,North,0,0.0,0.0,87,0.00,,,0.00,WUHU216HW,2013-08-03 12:30:00,
2013-08-03 07:35:00,56.9,53.0,30.37,North,0,0.0,0.0,87,0.00,,,0.00,WUHU216HW,2013-08-03 12:35:00,
2013-08-03 08:00:00,59.0,54.9,30.39,North,0,0.0,0.0,86,0.00,,,0.00,WUHU216HW,2013-08-03 13:00:00,
2013-08-03 08:05:00,59.0,54.9,30.39,North,0,0.0,0.0,86,0.00,,,0.00,WUHU216HW,2013-08-03 13:05:00,
2013-08-03 08:30:00,60.8,56.0,30.39,North,0,0.0,0.0,84,0.00,,,0.00,WUHU216HW,2013-08-03 13:30:00,
2013-08-03 08:35:00,60.8,56.0,30.39,North,0,0.0,0.0,84,0.00,,,0.00,WUHU216HW,2013-08-03 13:35:00,
2013-08-03 08:59:00,63.0,57.7,30.39,North,0,0.0,0.0,83,0.00,,,0.00,WUHU216HW,2013-08-03 13:59:00,
2013-08-03 09:00:00,63.0,57.7,30.39,North,0,0.0,0.0,83,0.00,,,0.00,WUHU216HW,2013-08-03 14:00:00,
2013-08-03 09:05:00,63.0,57.7,30.39,North,0,0.0,0.0,83,0.00,,,0.00,WUHU216HW,2013-08-03 14:05:00,
2013-08-03 09:29:00,65.3,59.0,30.39,North,0,0.0,0.0,80,0.00,,,0.00,WUHU216HW,2013-08-03 14:29:00,
2013-08-03 09:30:00,65.3,59.0,30.39,North,0,0.0,0.0,80,0.00,,,0.00,WUHU216HW,2013-08-03 14:30:00,
2013-08-03 09:35:00,65.3,59.0,30.39,North,0,0.0,0.0,80,0.00,,,0.00,WUHU216HW,2013-08-03 14:35:00,
2013-08-03 09:59:00,67.0,59.1,30.40,North,0,0.0,0.0,76,0.00,,,0.00,WUHU216HW,2013-08-03 14:59:00,
2013-08-03 10:00:00,67.0,59.1,30.40,North,0,0.0,0.0,76,0.00,,,0.00,WUHU216HW,2013-08-03 15:00:00,
2013-08-03 10:05:00,67.0,59.1,30.40,North,0,0.0,0.0,76,0.00,,,0.00,WUHU216HW,2013-08-03 15:05:00,
2013-08-03 10:29:00,68.8,59.0,30.40,North,0,0.0,0.0,71,0.00,,,0.00,WUHU216HW,2013-08-03 15:29:00,
2013-08-03 10:30:00,68.8,59.0,30.40,North,0,0.0,0.0,71,0.00,,,0.00,WUHU216HW,2013-08-03 15:30:00,
2013-08-03 10:35:00,68.8,59.0,30.40,North,0,0.0,0.0,71,0.00,,,0.00,WUHU216HW,2013-08-03 15:35:00,
2013-08-03 10:59:00,70.4,60.1,30.41,North,0,0.0,0.0,70,0.00,,,0.00,WUHU216HW,2013-08-03 15:59:00,
2013-08-03 11:00:00,70.4,60.1,30.41,North,0,0.0,0.0,70,0.00,,,0.00,WUHU216HW,2013-08-03 16:00:00,
2013-08-03 11:05:00,70.4,60.1,30.41,North,0,0.0,0.0,70,0.00,,,0.00,WUHU216HW,2013-08-03 16:05:00,
2013-08-03 11:29:00,71.5,60.3,30.41,North,0,0.0,0.0,68,0.00,,,0.00,WUHU216HW,2013-08-03 16:29:00,
2013-08-03 11:30:00,71.5,60.3,30.41,North,0,0.0,0.0,68,0.00,,,0.00,WUHU216HW,2013-08-03 16:30:00,
2013-08-03 11:35:00,71.5,60.3,30.41,North,0,0.0,0.0,68,0.00,,,0.00,WUHU216HW,2013-08-03 16:35:00,
2013-08-03 11:59:00,72.5,60.5,30.40,North,0,0.0,0.0,66,0.00,,,0.00,WUHU216HW,2013-08-03 16:59:00,
2013-08-03 12:00:00,72.5,60.5,30.40,North,0,0.0,0.0,66,0.00,,,0.00,WUHU216HW,2013-08-03 17:00:00,
2013-08-03 12:05:00,72.5,60.5,30.40,North,0,0.0,0.0,66,0.00,,,0.00,WUHU216HW,2013-08-03 17:05:00,
2013-08-03 12:29:00,72.4,58.6,30.41,North,0,0.0,0.0,62,0.00,,,0.00,WUHU216HW,2013-08-03 17:29:00,
2013-08-03 12:30:00,72.4,58.6,30.41,North,0,0.0,0.0,62,0.00,,,0.00,WUHU216HW,2013-08-03 17:30:00,
2013-08-03 12:35:00,72.4,58.6,30.41,North,0,0.0,0.0,62,0.00,,,0.00,WUHU216HW,2013-08-03 17:35:00,
2013-08-03 12:59:00,73.4,57.2,30.41,North,0,0.0,0.0,57,0.00,,,0.00,WUHU216HW,2013-08-03 17:59:00,
2013-08-03 13:00:00,73.4,57.2,30.41,North,0,0.0,0.0,57,0.00,,,0.00,WUHU216HW,2013-08-03 18:00:00,
2013-08-03 13:05:00,73.4,57.2,30.41,North,0,0.0,0.0,57,0.00,,,0.00,WUHU216HW,2013-08-03 18:05:00,
2013-08-03 13:29:00,74.7,56.9,30.41,North,0,0.0,0.0,54,0.00,,,0.00,WUHU216HW,2013-08-03 18:29:00,
2013-08-03 13:35:00,74.7,56.9,30.41,North,0,0.0,0.0,54,0.00,,,0.00,WUHU216HW,2013-08-03 18:35:00,
2013-08-03 13:59:00,75.1,57.2,30.41,North,0,0.0,0.0,54,0.00,,,0.00,WUHU216HW,2013-08-03 18:59:00,
2013-08-03 14:00:00,75.1,57.2,30.41,North,0,0.0,0.0,54,0.00,,,0.00,WUHU216HW,2013-08-03 19:00:00,
2013-08-03 14:05:00,75.1,57.2,30.41,North,0,0.0,0.0,54,0.00,,,0.00,WUHU216HW,2013-08-03 19:05:00,
2013-08-03 14:30:00,76.5,57.1,30.40,North,0,0.0,0.0,51,0.00,,,0.00,WUHU216HW,2013-08-03 19:30:00,
2013-08-03 14:35:00,76.5,57.1,30.40,North,0,0.0,0.0,51,0.00,,,0.00,WUHU216HW,2013-08-03 19:35:00,
2013-08-03 14:59:00,75.6,56.3,30.40,North,0,0.0,0.0,51,0.00,,,0.00,WUHU216HW,2013-08-03 19:59:00,
2013-08-03 15:00:00,75.6,56.3,30.40,North,0,0.0,0.0,51,0.00,,,0.00,WUHU216HW,2013-08-03 20:00:00,
2013-08-03 15:05:00,75.6,56.3,30.40,North,0,0.0,0.0,51,0.00,,,0.00,WUHU216HW,2013-08-03 20:05:00,
2013-08-03 15:29:00,75.1,55.8,30.40,North,0,0.0,0.0,51,0.00,,,0.00,WUHU216HW,2013-08-03 20:29:00,
2013-08-03 15:30:00,75.1,55.8,30.40,North,0,0.0,0.0,51,0.00,,,0.00,WUHU216HW,2013-08-03 20:30:00,
2013-08-03 15:35:00,75.1,55.8,30.40,North,0,0.0,0.0,51,0.00,,,0.00,WUHU216HW,2013-08-03 20:35:00,
2013-08-03 15:59:00,76.0,56.1,30.40,North,0,0.0,0.0,50,0.00,,,0.00,WUHU216HW,2013-08-03 20:59:00,
2013-08-03 16:00:00,76.0,56.1,30.40,North,0,0.0,0.0,50,0.00,,,0.00,WUHU216HW,2013-08-03 21:00:00,
2013-08-03 16:05:00,76.0,56.1,30.40,North,0,0.0,0.0,50,0.00,,,0.00,WUHU216HW,2013-08-03 21:05:00,
2013-08-03 16:29:00,76.3,55.8,30.39,North,0,0.0,0.0,49,0.00,,,0.00,WUHU216HW,2013-08-03 21:29:00,
2013-08-03 16:30:00,76.3,55.8,30.39,North,0,0.0,0.0,49,0.00,,,0.00,WUHU216HW,2013-08-03 21:30:00,
2013-08-03 16:35:00,76.3,55.8,30.39,North,0,0.0,0.0,49,0.00,,,0.00,WUHU216HW,2013-08-03 21:35:00,
2013-08-03 16:59:00,76.7,55.5,30.39,North,0,0.0,0.0,48,0.00,,,0.00,WUHU216HW,2013-08-03 21:59:00,
2013-08-03 17:00:00,76.7,55.5,30.39,North,0,0.0,0.0,48,0.00,,,0.00,WUHU216HW,2013-08-03 22:00:00,
2013-08-03 17:05:00,76.7,55.5,30.39,North,0,0.0,0.0,48,0.00,,,0.00,WUHU216HW,2013-08-03 22:05:00,
2013-08-03 17:30:00,76.5,54.7,30.39,North,0,0.0,0.0,47,0.00,,,0.00,WUHU216HW,2013-08-03 22:30:00,
2013-08-03 17:35:00,76.5,54.7,30.39,North,0,0.0,0.0,47,0.00,,,0.00,WUHU216HW,2013-08-03 22:35:00,
2013-08-03 18:00:00,76.3,54.5,30.39,North,0,0.0,0.0,47,0.00,,,0.00,WUHU216HW,2013-08-03 23:00:00,
2013-08-03 18:05:00,76.3,54.5,30.39,North,0,0.0,0.0,47,0.00,,,0.00,WUHU216HW,2013-08-03 23:05:00,
2013-08-03 18:30:00,77.2,54.8,30.39,North,0,0.0,0.0,46,0.00,,,0.00,WUHU216HW,2013-08-03 23:30:00,
2013-08-03 18:34:00,77.2,54.8,30.39,North,0,0.0,0.0,46,0.00,,,0.00,WUHU216HW,2013-08-03 23:34:00,
2013-08-03 19:00:00,80.5,57.1,30.39,North,0,0.0,0.0,45,0.00,,,0.00,WUHU216HW,2013-08-04 00:00:00,
2013-08-03 19:05:00,80.5,57.1,30.39,North,0,0.0,0.0,45,0.00,,,0.00,WUHU216HW,2013-08-04 00:05:00,
2013-08-03 19:29:00,84.1,57.2,30.38,North,0,0.0,0.0,40,0.00,,,0.00,WUHU216HW,2013-08-04 00:29:00,
2013-08-03 19:30:00,84.1,57.2,30.38,North,0,0.0,0.0,40,0.00,,,0.00,WUHU216HW,2013-08-04 00:30:00,
2013-08-03 19:35:00,84.1,57.2,30.38,North,0,0.0,0.0,40,0.00,,,0.00,WUHU216HW,2013-08-04 00:35:00,
2013-08-03 19:59:00,84.1,59.8,30.39,North,0,0.0,0.0,44,0.00,,,0.00,WUHU216HW,2013-08-04 00:59:00,
2013-08-03 20:00:00,84.1,59.8,30.39,North,0,0.0,0.0,44,0.00,,,0.00,WUHU216HW,2013-08-04 01:00:00,
2013-08-03 20:04:00,84.1,59.8,30.39,North,0,0.0,0.0,44,0.00,,,0.00,WUHU216HW,2013-08-04 01:04:00,
2013-08-03 20:29:00,79.0,57.6,30.39,North,0,0.0,0.0,48,0.00,,,0.00,WUHU216HW,2013-08-04 01:29:00,
2013-08-03 20:30:00,79.0,57.6,30.39,North,0,0.0,0.0,48,0.00,,,0.00,WUHU216HW,2013-08-04 01:30:00,
2013-08-03 20:35:00,79.0,57.6,30.39,North,0,0.0,0.0,48,0.00,,,0.00,WUHU216HW,2013-08-04 01:35:00,
2013-08-03 20:59:00,72.7,56.5,30.40,North,0,0.0,0.0,57,0.00,,,0.00,WUHU216HW,2013-08-04 01:59:00,
2013-08-03 21:00:00,72.7,56.5,30.40,North,0,0.0,0.0,57,0.00,,,0.00,WUHU216HW,2013-08-04 02:00:00,
2013-08-03 21:05:00,72.7,56.5,30.40,North,0,0.0,0.0,57,0.00,,,0.00,WUHU216HW,2013-08-04 02:05:00,
2013-08-03 21:29:00,68.8,54.8,30.41,North,0,0.0,0.0,61,0.00,,,0.00,WUHU216HW,2013-08-04 02:29:00,
2013-08-03 21:35:00,68.8,54.8,30.41,North,0,0.0,0.0,61,0.00,,,0.00,WUHU216HW,2013-08-04 02:35:00,
2013-08-03 21:59:00,66.2,54.1,30.42,North,0,0.0,0.0,65,0.00,,,0.00,WUHU216HW,2013-08-04 02:59:00,
2013-08-03 22:00:00,66.2,54.1,30.42,North,0,0.0,0.0,65,0.00,,,0.00,WUHU216HW,2013-08-04 03:00:00,
2013-08-03 22:05:00,66.2,54.1,30.42,North,0,0.0,0.0,65,0.00,,,0.00,WUHU216HW,2013-08-04 03:05:00,
2013-08-03 22:29:00,63.7,53.4,30.42,North,0,0.0,0.0,69,0.00,,,0.00,WUHU216HW,2013-08-04 03:29:00,
2013-08-03 22:30:00,63.7,53.4,30.42,North,0,0.0,0.0,69,0.00,,,0.00,WUHU216HW,2013-08-04 03:30:00,
2013-08-03 22:34:00,63.7,53.4,30.42,North,0,0.0,0.0,69,0.00,,,0.00,WUHU216HW,2013-08-04 03:34:00,
2013-08-03 22:59:00,62.3,53.1,30.43,North,0,0.0,0.0,72,0.00,,,0.00,WUHU216HW,2013-08-04 03:59:00,
2013-08-03 23:00:00,62.3,53.1,30.43,North,0,0.0,0.0,72,0.00,,,0.00,WUHU216HW,2013-08-04 04:00:00,
2013-08-03 23:01:00,62.3,53.1,30.43,North,0,0.0,0.0,72,0.00,,,0.00,WUHU216HW,2013-08-04 04:01:00,
2013-08-03 23:06:00,62.3,53.1,30.43,North,0,0.0,0.0,72,0.00,,,0.00,WUHU216HW,2013-08-04 04:06:00,
2013-08-03 23:29:00,61.2,52.6,30.44,North,0,0.0,0.0,73,0.00,,,0.00,WUHU216HW,2013-08-04 04:29:00,
2013-08-03 23:30:00,61.2,52.6,30.44,North,0,0.0,0.0,73,0.00,,,0.00,WUHU216HW,2013-08-04 04:30:00,
2013-08-03 23:34:00,61.2,52.6,30.44,North,0,0.0,0.0,73,0.00,,,0.00,WUHU216HW,2013-08-04 04:34:00,
2013-08-03 23:59:00,59.9,52.0,30.45,North,0,0.0,0.0,75,0.00,,,0.00,WUHU216HW,2013-08-04 04:59:00,